createdAt,value
2022-09-20T00:01:32.428Z,50.34
2022-09-20T00:04:05.344Z,50.36
2022-09-20T00:06:34.727Z,50.14
2022-09-20T00:09:03.581Z,50.44
2022-09-20T00:11:35.838Z,50.53
2022-09-20T00:14:08.572Z,50.31
2022-09-20T00:16:39.542Z,50.51
2022-09-20T00:19:08.336Z,50.49
2022-09-20T00:21:37.987Z,50.46
2022-09-20T00:24:06.852Z,50.36
2022-09-20T00:26:36.572Z,50.70
2022-09-20T00:29:05.584Z,50.85
2022-09-20T00:31:33.714Z,50.71
2022-09-20T00:34:19.357Z,50.58
2022-09-20T00:36:47.398Z,50.59
2022-09-20T00:39:16.768Z,50.64
2022-09-20T00:41:46.636Z,50.81
2022-09-20T00:44:43.780Z,50.66
2022-09-20T00:47:19.848Z,50.91
2022-09-20T00:49:48.125Z,50.74
2022-09-20T00:52:17.076Z,50.87
2022-09-20T00:54:45.475Z,50.92
2022-09-20T00:57:15.131Z,50.91
2022-09-20T00:59:48.291Z,51.00
2022-09-20T01:02:20.336Z,50.88
2022-09-20T01:04:49.991Z,51.37
2022-09-20T01:07:23.250Z,51.00
2022-09-20T01:09:52.276Z,51.04
2022-09-20T01:12:24.849Z,51.26
2022-09-20T01:14:54.587Z,51.33
2022-09-20T01:17:26.685Z,51.35
2022-09-20T01:20:09.276Z,51.33
2022-09-20T01:22:48.321Z,51.43
2022-09-20T01:25:19.236Z,51.74
2022-09-20T01:27:52.085Z,51.68
2022-09-20T01:30:22.100Z,51.55
2022-09-20T01:33:11.121Z,51.86
2022-09-20T01:35:42.475Z,51.67
2022-09-20T01:38:23.251Z,51.57
2022-09-20T01:41:00.981Z,51.80
2022-09-20T01:43:36.390Z,51.91
2022-09-20T01:46:15.290Z,52.00
2022-09-20T01:48:43.961Z,51.90
2022-09-20T01:51:53.885Z,51.90
2022-09-20T01:55:00.400Z,52.00
2022-09-20T01:58:19.050Z,51.98
2022-09-20T02:01:07.209Z,52.47
2022-09-20T02:03:58.864Z,52.30
2022-09-20T02:06:51.804Z,52.38
2022-09-20T02:09:47.493Z,52.46
2022-09-20T02:12:33.519Z,52.51
2022-09-20T02:15:10.165Z,52.60
2022-09-20T02:17:50.978Z,52.45
2022-09-20T02:20:34.375Z,52.51
2022-09-20T02:23:22.517Z,52.44
2022-09-20T02:26:07.017Z,52.43
2022-09-20T02:28:53.267Z,52.44
2022-09-20T02:31:34.911Z,52.59
2022-09-20T02:34:26.600Z,52.51
2022-09-20T02:37:13.015Z,52.55
2022-09-20T02:39:55.712Z,52.56
2022-09-20T02:42:30.949Z,52.55
2022-09-20T02:45:08.389Z,52.67
2022-09-20T02:47:39.073Z,52.55
2022-09-20T02:50:24.246Z,52.49
2022-09-20T02:53:06.901Z,52.61
2022-09-20T02:55:43.540Z,52.70
2022-09-20T02:58:26.657Z,52.66
2022-09-20T03:01:01.202Z,52.69
2022-09-20T03:03:41.257Z,52.83
2022-09-20T03:06:19.867Z,52.78
2022-09-20T03:08:55.396Z,53.03
2022-09-20T03:11:31.826Z,53.09
2022-09-20T03:14:23.365Z,52.95
2022-09-20T03:17:07.129Z,52.93
2022-09-20T03:19:50.276Z,53.08
2022-09-20T03:22:32.985Z,53.07
2022-09-20T03:25:23.259Z,53.11
2022-09-20T03:28:00.790Z,52.92
2022-09-20T03:30:42.577Z,53.00
2022-09-20T03:33:23.246Z,52.91
2022-09-20T03:36:04.250Z,52.75
2022-09-20T03:38:50.377Z,52.93
2022-09-20T03:41:42.333Z,52.97
2022-09-20T03:44:25.542Z,52.78
2022-09-20T03:47:04.940Z,52.94
2022-09-20T03:49:54.858Z,53.28
2022-09-20T03:52:51.435Z,53.10
2022-09-20T03:55:55.610Z,53.18
2022-09-20T03:58:44.571Z,53.12
2022-09-20T04:01:32.707Z,53.36
2022-09-20T04:04:09.142Z,53.20
2022-09-20T04:06:56.495Z,53.33
2022-09-20T04:09:47.543Z,53.25
2022-09-20T04:12:27.196Z,52.84
2022-09-20T04:15:07.067Z,53.01
2022-09-20T04:17:44.229Z,53.00
2022-09-20T04:20:21.922Z,53.39
2022-09-20T04:22:55.846Z,53.17
2022-09-20T04:25:30.392Z,53.36
2022-09-20T04:28:05.964Z,53.26
2022-09-20T04:30:44.082Z,52.82
2022-09-20T04:33:20.615Z,53.20
2022-09-20T04:36:35.235Z,53.36
2022-09-20T04:39:16.991Z,53.22
2022-09-20T04:42:35.838Z,53.30
2022-09-20T04:45:51.543Z,53.40
2022-09-20T04:48:57.230Z,53.23
2022-09-20T04:52:16.136Z,53.43
2022-09-20T04:55:36.369Z,53.41
2022-09-20T04:58:37.327Z,53.53
2022-09-20T05:01:40.728Z,53.59
2022-09-20T05:04:42.180Z,53.43
2022-09-20T05:07:48.603Z,53.38
2022-09-20T05:10:38.673Z,53.42
2022-09-20T05:13:22.136Z,53.53
2022-09-20T05:15:59.578Z,53.68
2022-09-20T05:19:07.669Z,53.47
2022-09-20T05:21:55.214Z,53.59
2022-09-20T05:24:40.707Z,53.60
2022-09-20T05:27:29.302Z,53.59
2022-09-20T05:30:06.652Z,53.58
2022-09-20T05:32:44.565Z,53.35
2022-09-20T05:35:24.114Z,53.54
2022-09-20T05:38:01.966Z,53.68
2022-09-20T05:40:37.164Z,53.69
2022-09-20T05:43:12.091Z,53.96
2022-09-20T05:45:58.873Z,53.69
2022-09-20T05:48:36.093Z,53.92
2022-09-20T05:51:15.540Z,53.66
2022-09-20T05:54:05.958Z,53.47
2022-09-20T05:56:46.728Z,53.47
2022-09-20T05:59:27.296Z,53.63
2022-09-20T06:02:20.517Z,53.60
2022-09-20T06:05:01.468Z,53.68
2022-09-20T06:07:46.040Z,53.50
2022-09-20T06:10:34.996Z,53.90
2022-09-20T06:13:21.455Z,53.76
2022-09-20T06:15:56.074Z,53.76
2022-09-20T06:18:29.525Z,53.67
2022-09-20T06:21:06.266Z,53.75
2022-09-20T06:23:37.162Z,53.61
2022-09-20T06:26:10.673Z,53.75
2022-09-20T06:28:42.645Z,53.71
2022-09-20T06:31:12.156Z,53.47
2022-09-20T06:33:47.245Z,53.85
2022-09-20T06:36:36.754Z,54.01
2022-09-20T06:39:35.540Z,53.94
2022-09-20T06:42:03.734Z,53.92
2022-09-20T06:44:31.940Z,53.89
2022-09-20T06:47:00.334Z,54.13
2022-09-20T06:49:29.306Z,53.80
2022-09-20T06:51:57.581Z,53.82
2022-09-20T06:54:27.984Z,53.70
2022-09-20T06:56:56.239Z,53.65
2022-09-20T06:59:24.525Z,53.83
2022-09-20T07:01:52.791Z,53.60
2022-09-20T07:04:22.209Z,53.71
2022-09-20T07:06:50.263Z,53.66
2022-09-20T07:09:18.540Z,53.68
2022-09-20T07:11:48.052Z,54.04
2022-09-20T07:14:16.379Z,53.53
2022-09-20T07:16:44.578Z,53.57
2022-09-20T07:19:12.775Z,53.24
2022-09-20T07:21:40.856Z,53.58
2022-09-20T07:24:08.938Z,53.24
2022-09-20T07:26:37.352Z,53.45
2022-09-20T07:29:06.879Z,53.49
2022-09-20T07:31:34.920Z,53.59
2022-09-20T07:34:03.067Z,53.39
2022-09-20T07:36:31.090Z,53.49
2022-09-20T07:38:59.162Z,53.64
2022-09-20T07:41:29.445Z,53.60
2022-09-20T07:44:17.676Z,53.48
2022-09-20T07:46:48.759Z,53.46
2022-09-20T07:49:17.440Z,53.32
2022-09-20T07:51:45.749Z,53.26
2022-09-20T07:54:13.854Z,53.04
2022-09-20T07:56:42.196Z,53.31
2022-09-20T07:59:11.396Z,53.50
2022-09-20T08:01:39.638Z,53.46
2022-09-20T08:04:09.738Z,52.96
2022-09-20T08:06:38.659Z,52.96
2022-09-20T08:09:10.924Z,53.02
2022-09-20T08:11:40.683Z,52.92
2022-09-20T08:14:09.518Z,52.69
2022-09-20T08:16:41.031Z,52.62
2022-09-20T08:19:15.498Z,52.58
2022-09-20T08:21:44.481Z,52.54
2022-09-20T08:24:13.063Z,52.54
2022-09-20T08:26:41.628Z,52.49
2022-09-20T08:29:09.993Z,52.29
2022-09-20T08:31:42.401Z,52.27
2022-09-20T08:34:15.263Z,52.32
2022-09-20T08:36:46.896Z,52.12
2022-09-20T08:42:15.142Z,51.90
2022-09-20T08:45:00.449Z,52.17
2022-09-20T08:47:32.515Z,52.03
2022-09-20T08:50:11.561Z,51.79
2022-09-20T08:52:42.499Z,51.71
2022-09-20T08:55:17.505Z,51.64
2022-09-20T08:57:50.370Z,51.45
2022-09-20T09:00:21.137Z,51.17
2022-09-20T09:02:51.929Z,51.06
2022-09-20T09:05:33.316Z,50.89
2022-09-20T09:08:04.622Z,50.66
2022-09-20T09:10:43.412Z,50.79
2022-09-20T09:13:19.757Z,50.07
2022-09-20T09:15:52.894Z,49.92
2022-09-20T09:18:21.140Z,49.85
2022-09-20T09:20:53.010Z,49.61
2022-09-20T09:23:27.257Z,49.43
2022-09-20T09:25:56.682Z,49.34
2022-09-20T09:28:31.520Z,49.14
2022-09-20T09:31:16.233Z,49.56
2022-09-20T09:33:47.642Z,49.14
2022-09-20T09:36:19.183Z,48.93
2022-09-20T09:38:48.205Z,48.75
2022-09-20T09:41:26.563Z,48.89
2022-09-20T09:44:06.683Z,48.95
2022-09-20T09:46:36.887Z,49.01
2022-09-20T09:49:12.056Z,48.91
2022-09-20T09:51:44.299Z,48.64
2022-09-20T09:54:19.877Z,48.96
2022-09-20T09:57:06.142Z,48.71
2022-09-20T09:59:45.510Z,48.52
2022-09-20T10:02:30.931Z,48.37
2022-09-20T10:05:05.676Z,48.27
2022-09-20T10:07:45.046Z,48.12
2022-09-20T10:10:27.563Z,48.30
2022-09-20T10:13:11.032Z,48.22
2022-09-20T10:15:43.045Z,47.92
2022-09-20T10:18:26.765Z,47.88
2022-09-20T10:21:08.119Z,47.98
2022-09-20T10:24:03.041Z,47.81
2022-09-20T10:26:49.068Z,47.83
2022-09-20T10:29:26.374Z,47.99
2022-09-20T10:32:02.074Z,47.78
2022-09-20T10:35:14.355Z,47.84
2022-09-20T10:37:55.235Z,47.90
2022-09-20T10:40:48.467Z,47.98
2022-09-20T10:43:29.390Z,48.08
2022-09-20T10:46:30.705Z,48.19
2022-09-20T10:49:04.880Z,48.46
2022-09-20T10:51:43.318Z,48.53
2022-09-20T10:54:27.438Z,48.65
2022-09-20T10:57:10.086Z,48.53
2022-09-20T10:59:48.341Z,48.24
2022-09-20T11:02:37.190Z,48.35
2022-09-20T11:05:21.421Z,48.34
2022-09-20T11:08:03.850Z,47.98
2022-09-20T11:10:37.472Z,48.03
2022-09-20T11:13:12.478Z,47.58
2022-09-20T11:15:45.910Z,47.60
2022-09-20T11:18:23.266Z,46.97
2022-09-20T11:20:58.849Z,47.02
2022-09-20T11:23:35.023Z,46.68
2022-09-20T11:26:13.321Z,46.18
2022-09-20T11:28:49.126Z,45.70
2022-09-20T11:31:24.852Z,45.45
2022-09-20T11:33:57.776Z,44.41
2022-09-20T11:36:32.612Z,44.25
2022-09-20T11:39:04.871Z,43.98
2022-09-20T11:41:33.574Z,44.44
2022-09-20T11:44:08.212Z,44.39
2022-09-20T11:46:43.619Z,44.44
2022-09-20T11:49:17.813Z,44.79
2022-09-20T11:52:22.702Z,44.91
2022-09-20T11:55:08.491Z,45.13
2022-09-20T11:57:36.696Z,45.37
2022-09-20T12:00:10.240Z,45.33
2022-09-20T12:02:46.625Z,45.19
2022-09-20T12:05:28.028Z,45.34
2022-09-20T12:07:57.811Z,45.18
2022-09-20T12:10:28.232Z,44.95
2022-09-20T12:13:01.113Z,45.07
2022-09-20T12:15:33.521Z,44.73
2022-09-20T12:18:27.486Z,44.48
2022-09-20T12:21:16.457Z,44.37
2022-09-20T12:24:21.995Z,43.40
2022-09-20T12:26:52.232Z,43.00
2022-09-20T12:30:03.971Z,42.73
2022-09-20T12:32:42.629Z,42.37
2022-09-20T12:35:56.498Z,42.84
2022-09-20T12:38:49.470Z,42.92
2022-09-20T12:41:28.277Z,42.03
2022-09-20T12:44:04.038Z,41.46
2022-09-20T12:46:51.125Z,41.74
2022-09-20T12:49:58.289Z,41.77
2022-09-20T12:52:48.330Z,41.95
2022-09-20T12:55:31.629Z,41.79
2022-09-20T12:58:06.226Z,41.21
2022-09-20T13:00:39.614Z,41.13
2022-09-20T13:03:24.691Z,41.04
2022-09-20T13:06:25.154Z,41.54
2022-09-20T13:08:59.379Z,41.50
2022-09-20T13:11:31.817Z,41.76
2022-09-20T13:14:04.923Z,41.95
2022-09-20T13:16:47.656Z,41.02
2022-09-20T13:19:18.757Z,41.13
2022-09-20T13:21:56.494Z,41.49
2022-09-20T13:24:27.416Z,41.08
2022-09-20T13:27:01.902Z,40.30
2022-09-20T13:29:35.448Z,40.49
2022-09-20T13:32:17.546Z,40.91
2022-09-20T13:34:46.894Z,40.47
2022-09-20T13:37:23.869Z,40.23
2022-09-20T13:39:56.133Z,39.32
2022-09-20T13:42:24.658Z,39.98
2022-09-20T13:44:53.545Z,39.51
2022-09-20T13:47:27.603Z,39.64
2022-09-20T13:50:02.808Z,39.58
2022-09-20T13:52:33.438Z,39.36
2022-09-20T13:55:01.694Z,38.81
2022-09-20T13:57:31.533Z,38.24
2022-09-20T14:00:01.799Z,36.66
2022-09-20T14:02:32.998Z,36.79
2022-09-20T14:05:03.413Z,39.54
2022-09-20T14:07:36.515Z,39.06
2022-09-20T14:10:05.293Z,37.35
2022-09-20T14:12:36.110Z,36.81
2022-09-20T14:15:10.056Z,37.91
2022-09-20T14:17:38.568Z,38.07
2022-09-20T14:20:08.416Z,38.96
2022-09-20T14:22:38.110Z,38.02
2022-09-20T14:25:25.527Z,37.04
2022-09-20T14:28:08.450Z,36.08
2022-09-20T14:30:38.214Z,35.56
2022-09-20T14:33:16.262Z,35.98
2022-09-20T14:35:49.796Z,36.12
2022-09-20T14:38:24.702Z,34.82
2022-09-20T14:40:53.146Z,34.66
2022-09-20T14:43:28.032Z,33.50
2022-09-20T14:45:58.692Z,33.58
2022-09-20T14:48:36.460Z,32.63
2022-09-20T14:51:25.252Z,32.77
2022-09-20T14:54:15.306Z,32.43
2022-09-20T14:56:49.537Z,31.14
2022-09-20T14:59:27.342Z,32.04
2022-09-20T15:02:05.190Z,32.02
2022-09-20T15:04:35.485Z,30.74
2022-09-20T15:07:04.638Z,31.04
2022-09-20T15:09:35.381Z,31.17
2022-09-20T15:12:05.763Z,30.31
2022-09-20T15:14:37.934Z,29.60
2022-09-20T15:17:06.784Z,29.37
2022-09-20T15:19:34.999Z,29.35
2022-09-20T15:22:03.362Z,29.80
2022-09-20T15:24:31.493Z,28.83
2022-09-20T15:27:01.111Z,28.06
2022-09-20T15:29:29.568Z,28.61
2022-09-20T15:31:58.061Z,28.45
2022-09-20T15:34:26.099Z,28.13
2022-09-20T15:36:54.757Z,28.88
2022-09-20T15:39:24.639Z,29.68
2022-09-20T15:41:53.242Z,30.08
2022-09-20T15:44:22.831Z,31.24
2022-09-20T15:46:53.420Z,31.85
2022-09-20T15:49:22.329Z,32.37
2022-09-20T15:51:50.650Z,33.63
2022-09-20T15:54:18.768Z,33.91
2022-09-20T15:56:46.989Z,32.30
2022-09-20T15:59:16.481Z,31.48
2022-09-20T16:01:48.219Z,30.96
2022-09-20T16:04:19.397Z,31.67
2022-09-20T16:06:50.298Z,32.43
2022-09-20T16:09:19.504Z,33.28
2022-09-20T16:11:48.301Z,33.51
2022-09-20T16:14:16.742Z,33.69
2022-09-20T16:16:46.278Z,34.11
2022-09-20T16:19:20.800Z,34.42
2022-09-20T16:21:57.742Z,35.00
2022-09-20T16:24:27.397Z,35.28
2022-09-20T16:26:55.971Z,35.66
2022-09-20T16:29:25.843Z,35.87
2022-09-20T16:31:57.725Z,36.42
2022-09-20T16:34:30.321Z,36.76
2022-09-20T16:36:59.828Z,36.37
2022-09-20T16:39:28.822Z,36.24
2022-09-20T16:42:00.047Z,36.23
2022-09-20T16:44:28.063Z,36.50
2022-09-20T16:46:57.638Z,36.98
2022-09-20T16:49:29.586Z,37.68
2022-09-20T16:51:57.667Z,36.98
2022-09-20T16:54:31.027Z,35.47
2022-09-20T16:57:00.063Z,34.20
2022-09-20T16:59:28.143Z,33.59
2022-09-20T17:01:58.171Z,33.81
2022-09-20T17:04:26.423Z,33.92
2022-09-20T17:06:54.559Z,34.12
2022-09-20T17:09:22.477Z,34.54
2022-09-20T17:11:52.089Z,35.17
2022-09-20T17:14:22.312Z,35.69
2022-09-20T17:16:51.270Z,36.14
2022-09-20T17:19:22.029Z,35.60
2022-09-20T17:21:51.509Z,34.93
2022-09-20T17:24:20.438Z,33.87
2022-09-20T17:26:49.028Z,33.40
2022-09-20T17:29:18.649Z,32.62
2022-09-20T17:31:54.139Z,32.90
2022-09-20T17:34:26.034Z,32.28
2022-09-20T17:36:55.844Z,32.08
2022-09-20T17:39:24.422Z,32.12
2022-09-20T17:41:52.930Z,32.29
2022-09-20T17:44:21.278Z,32.29
2022-09-20T17:46:51.121Z,32.63
2022-09-20T17:49:20.604Z,32.79
2022-09-20T17:51:52.001Z,33.29
2022-09-20T17:54:20.965Z,33.47
2022-09-20T17:56:51.083Z,33.74
2022-09-20T17:59:21.544Z,34.35
2022-09-20T18:01:51.306Z,34.47
2022-09-20T18:04:21.060Z,34.74
2022-09-20T18:06:52.461Z,34.98
2022-09-20T18:09:22.890Z,35.13
2022-09-20T18:11:53.107Z,35.45
2022-09-20T18:14:23.505Z,35.91
2022-09-20T18:16:53.546Z,36.72
2022-09-20T18:19:23.010Z,37.13
2022-09-20T18:21:52.841Z,37.40
2022-09-20T18:24:20.839Z,37.72
2022-09-20T18:26:48.802Z,38.07
2022-09-20T18:29:19.240Z,38.12
2022-09-20T18:31:49.193Z,39.02
2022-09-20T18:34:18.878Z,39.57
2022-09-20T18:36:53.186Z,39.99
2022-09-20T18:39:23.247Z,40.42
2022-09-20T18:41:52.441Z,40.54
2022-09-20T18:44:21.095Z,40.95
2022-09-20T18:46:49.652Z,41.03
2022-09-20T18:49:17.850Z,41.65
2022-09-20T18:51:47.458Z,41.83
2022-09-20T18:54:15.911Z,41.82
2022-09-20T18:56:48.920Z,42.13
2022-09-20T18:59:18.932Z,42.58
2022-09-20T19:02:13.613Z,42.67
2022-09-20T19:05:17.445Z,43.13
2022-09-20T19:07:55.333Z,43.66
2022-09-20T19:10:30.054Z,43.60
2022-09-20T19:13:06.489Z,43.96
2022-09-20T19:15:57.942Z,44.18
2022-09-20T19:19:07.535Z,44.36
2022-09-20T19:21:42.868Z,44.54
2022-09-20T19:24:24.264Z,44.86
2022-09-20T19:26:53.102Z,44.88
2022-09-20T19:29:25.371Z,45.24
2022-09-20T19:31:55.766Z,45.49
2022-09-20T19:34:25.809Z,45.47
2022-09-20T19:37:03.214Z,46.07
2022-09-20T19:39:45.475Z,46.22
2022-09-20T19:42:21.347Z,46.40
2022-09-20T19:45:02.013Z,46.70
2022-09-20T19:47:38.516Z,47.20
2022-09-20T19:50:17.218Z,47.39
2022-09-20T19:52:46.334Z,47.49
2022-09-20T19:55:15.640Z,47.76
2022-09-20T19:57:47.105Z,47.97
2022-09-20T20:00:19.980Z,48.03
2022-09-20T20:02:48.891Z,48.39
2022-09-20T20:05:19.036Z,48.64
2022-09-20T20:07:55.885Z,48.79
2022-09-20T20:10:29.639Z,48.55
2022-09-20T20:13:04.394Z,49.10
2022-09-20T20:15:43.611Z,49.07
2022-09-20T20:18:23.025Z,49.05
2022-09-20T20:20:53.935Z,49.10
2022-09-20T20:23:47.879Z,49.41
2022-09-20T20:26:22.240Z,49.41
2022-09-20T20:28:50.834Z,49.78
2022-09-20T20:31:20.576Z,49.60
2022-09-20T20:33:48.560Z,49.81
2022-09-20T20:36:18.083Z,49.81
2022-09-20T20:38:50.007Z,49.89
2022-09-20T20:41:20.502Z,50.38
2022-09-20T20:43:49.780Z,50.28
2022-09-20T20:46:20.218Z,50.54
2022-09-20T20:48:48.551Z,50.55
2022-09-20T20:51:18.882Z,50.47
2022-09-20T20:53:49.191Z,50.35
2022-09-20T20:56:19.468Z,50.50
2022-09-20T20:58:49.500Z,50.66
2022-09-20T21:01:19.676Z,50.61
2022-09-20T21:03:50.847Z,51.04
2022-09-20T21:06:19.315Z,50.92
2022-09-20T21:08:50.067Z,51.04
2022-09-20T21:11:23.485Z,50.98
2022-09-20T21:13:51.674Z,50.74
2022-09-20T21:16:21.613Z,51.04
2022-09-20T21:18:52.021Z,51.19
2022-09-20T21:21:22.416Z,51.27
2022-09-20T21:23:52.609Z,51.55
2022-09-20T21:26:22.064Z,51.42
2022-09-20T21:28:53.269Z,51.56
2022-09-20T21:31:22.827Z,51.52
2022-09-20T21:33:52.300Z,51.79
2022-09-20T21:36:23.038Z,51.63
2022-09-20T21:38:51.187Z,51.71
2022-09-20T21:41:22.193Z,51.69
2022-09-20T21:43:53.154Z,51.75
2022-09-20T21:46:22.551Z,51.78
2022-09-20T21:48:52.362Z,51.70
2022-09-20T21:51:21.797Z,51.46
2022-09-20T21:53:54.040Z,51.52
2022-09-20T21:56:22.091Z,51.50
2022-09-20T21:58:50.099Z,51.81
2022-09-20T22:01:20.033Z,51.34
2022-09-20T22:03:49.388Z,51.38
2022-09-20T22:06:20.978Z,51.49
2022-09-20T22:08:51.861Z,51.51
2022-09-20T22:11:21.991Z,51.40
2022-09-20T22:13:51.831Z,51.34
2022-09-20T22:16:21.498Z,51.56
2022-09-20T22:18:49.884Z,51.68
2022-09-20T22:21:21.776Z,51.32
2022-09-20T22:23:51.040Z,51.65
2022-09-20T22:26:22.166Z,51.69
2022-09-20T22:28:51.691Z,51.50
2022-09-20T22:31:21.906Z,51.68
2022-09-20T22:33:51.557Z,51.70
2022-09-20T22:36:22.672Z,51.69
2022-09-20T22:38:51.134Z,51.49
2022-09-20T22:41:20.819Z,51.51
2022-09-20T22:43:48.969Z,51.64
2022-09-20T22:46:18.344Z,51.38
2022-09-20T22:48:46.810Z,51.51
2022-09-20T22:51:16.716Z,51.55
2022-09-20T22:53:47.571Z,51.38
2022-09-20T22:56:17.885Z,51.43
2022-09-20T22:58:48.008Z,51.33
2022-09-20T23:01:17.940Z,51.59
2022-09-20T23:03:47.953Z,51.58
2022-09-20T23:06:17.420Z,51.62
2022-09-20T23:08:46.797Z,51.40
2022-09-20T23:11:16.507Z,51.76
2022-09-20T23:13:45.186Z,51.88
2022-09-20T23:16:15.132Z,51.68
2022-09-20T23:18:43.303Z,52.00
2022-09-20T23:21:11.790Z,52.14
2022-09-20T23:23:43.347Z,52.07
2022-09-20T23:26:14.729Z,52.24
2022-09-20T23:28:44.545Z,52.46
2022-09-20T23:31:14.519Z,52.58
2022-09-20T23:33:48.945Z,52.59
2022-09-20T23:36:18.907Z,52.36
2022-09-20T23:38:47.645Z,52.58
2022-09-20T23:41:20.776Z,52.48
2022-09-20T23:43:49.802Z,52.42
2022-09-20T23:46:19.955Z,52.56
2022-09-20T23:48:48.267Z,52.34
2022-09-20T23:51:18.348Z,52.19
2022-09-20T23:53:46.396Z,52.21
2022-09-20T23:56:16.495Z,52.38
2022-09-20T23:58:45.553Z,52.34
